Time;durP1;ratioP1;P1;durP2;ratioP2;P2;SDS_P1;SDS_P2;PMS_P1;PMS_P2;Temp;Humidity;BMP_temperature;BMP_pressure;BME280_temperature;BME280_humidity;BME280_pressure;Samples;Min_cycle;Max_cycle;Signal;HPM_P1;HPM_P2
2024/04/22 00:00:31;;;;;;;2.35;2.00;;;;;;;3.94;100.00;101853.38;5242818;27;20006;-86
2024/04/22 00:03:00;;;;;;;2.55;1.90;;;;;;;3.81;100.00;101852.91;5217016;27;20006;-87
2024/04/22 00:05:25;;;;;;;1.95;1.73;;;;;;;3.95;100.00;101862.91;5212763;27;20375;-85
2024/04/22 00:07:53;;;;;;;2.03;1.30;;;;;;;3.93;100.00;101854.22;5224614;27;20010;-87
2024/04/22 00:10:19;;;;;;;2.60;1.85;;;;;;;3.86;100.00;101855.69;5241980;27;20011;-87
2024/04/22 00:12:47;;;;;;;2.60;1.98;;;;;;;3.82;100.00;101856.41;5211942;27;20462;-86
2024/04/22 00:15:13;;;;;;;2.30;2.10;;;;;;;3.78;100.00;101857.09;5212673;27;20007;-86
2024/04/22 00:17:41;;;;;;;2.13;1.55;;;;;;;3.85;100.00;101853.03;5212058;27;20514;-88
2024/04/22 00:20:09;;;;;;;2.97;1.98;;;;;;;3.87;100.00;101851.38;5239812;27;20025;-88
2024/04/22 00:22:37;;;;;;;4.22;2.20;;;;;;;3.75;100.00;101855.25;5258818;27;20474;-86
2024/04/22 00:25:03;;;;;;;2.42;1.58;;;;;;;3.85;100.00;101853.03;5238477;27;20003;-87
2024/04/22 00:27:31;;;;;;;3.55;2.03;;;;;;;3.94;100.00;101856.84;5212623;27;20035;-86
2024/04/22 00:29:57;;;;;;;3.67;2.15;;;;;;;3.81;100.00;101852.91;5264812;27;20026;-88
2024/04/22 00:32:25;;;;;;;2.70;1.63;;;;;;;3.74;100.00;101850.94;5211073;27;20015;-86
2024/04/22 00:34:50;;;;;;;3.45;2.08;;;;;;;3.72;100.00;101856.88;5185435;27;20027;-85
2024/04/22 00:37:19;;;;;;;2.97;2.42;;;;;;;3.76;100.00;101857.03;5235759;27;20055;-86
2024/04/22 00:39:44;;;;;;;2.30;1.98;;;;;;;3.80;100.00;101851.13;5209208;27;20038;-86
2024/04/22 00:42:13;;;;;;;2.10;1.90;;;;;;;3.84;100.00;101854.72;5190269;27;20192;-87
2024/04/22 00:44:38;;;;;;;2.35;1.85;;;;;;;3.91;100.00;101851.56;5234847;27;20051;-86
2024/04/22 00:47:07;;;;;;;1.98;1.88;;;;;;;3.87;100.00;101841.00;5258253;27;20086;-86
2024/04/22 00:49:32;;;;;;;2.30;2.15;;;;;;;3.94;100.00;101845.63;5267423;27;20025;-87
2024/04/22 00:52:01;;;;;;;3.55;2.47;;;;;;;3.94;100.00;101854.25;5182243;27;20468;-85
2024/04/22 00:54:26;;;;;;;2.15;2.00;;;;;;;3.98;100.00;101850.09;5212197;27;20015;-86
2024/04/22 00:56:55;;;;;;;3.80;2.00;;;;;;;4.01;100.00;101847.59;5214439;27;20022;-85
2024/04/22 00:59:21;;;;;;;2.40;2.20;;;;;;;4.00;100.00;101852.72;5212847;27;20007;-86
2024/04/22 01:01:50;;;;;;;3.85;2.25;;;;;;;4.05;100.00;101856.38;5217713;27;21259;-88
2024/04/22 01:04:15;;;;;;;1.98;1.83;;;;;;;4.07;100.00;101855.59;5209917;27;20021;-86
2024/04/22 01:06:43;;;;;;;3.47;2.70;;;;;;;3.97;100.00;101850.91;5210207;27;20011;-86
2024/04/22 01:09:09;;;;;;;2.03;1.92;;;;;;;3.97;100.00;101851.78;5243843;27;20019;-86
2024/04/22 01:11:40;;;;;;;3.40;2.10;;;;;;;3.93;100.00;101849.03;5233657;27;20026;-86
2024/04/22 01:14:06;;;;;;;2.63;1.90;;;;;;;3.89;100.00;101841.97;5260612;27;20019;-87
2024/04/22 01:16:36;;;;;;;3.58;1.90;;;;;;;3.70;100.00;101838.66;5215813;27;20034;-87
2024/04/22 01:19:01;;;;;;;3.45;1.95;;;;;;;3.68;100.00;101840.31;5213825;27;20089;-86
2024/04/22 01:21:30;;;;;;;2.88;2.25;;;;;;;3.63;100.00;101837.53;5215755;27;20862;-87
2024/04/22 01:23:56;;;;;;;4.18;2.03;;;;;;;3.59;100.00;101840.84;5211358;27;20056;-84
2024/04/22 01:26:28;;;;;;;4.07;2.63;;;;;;;3.55;100.00;101832.91;5206595;27;20058;-87
2024/04/22 01:28:53;;;;;;;8.15;2.60;;;;;;;3.45;100.00;101839.41;5207102;27;20443;-86
2024/04/22 01:31:21;;;;;;;4.43;2.33;;;;;;;3.56;100.00;101838.16;5213360;27;20018;-86
2024/04/22 01:33:47;;;;;;;3.08;2.08;;;;;;;3.56;100.00;101845.00;5209932;27;20018;-85
2024/04/22 01:36:15;;;;;;;2.58;1.90;;;;;;;3.62;100.00;101834.91;5186435;27;20031;-86
2024/04/22 01:38:41;;;;;;;2.80;2.60;;;;;;;3.54;100.00;101838.91;5245061;27;20042;-86
2024/04/22 01:41:09;;;;;;;2.05;1.85;;;;;;;3.62;100.00;101833.22;5217445;27;20331;-87
2024/04/22 01:43:35;;;;;;;4.75;2.10;;;;;;;3.70;100.00;101833.47;5238385;27;20029;-87
2024/04/22 01:46:06;;;;;;;2.65;1.90;;;;;;;3.48;100.00;101832.66;5183396;27;20015;-87
2024/04/22 01:48:32;;;;;;;4.63;2.90;;;;;;;3.56;100.00;101827.78;5211389;27;20027;-87
2024/04/22 01:51:02;;;;;;;2.83;2.28;;;;;;;3.59;100.00;101835.66;5214099;27;20012;-86
2024/04/22 01:53:28;;;;;;;2.75;2.55;;;;;;;3.62;100.00;101830.63;5235040;27;20027;-85
2024/04/22 01:55:59;;;;;;;3.67;2.03;;;;;;;3.55;100.00;101830.31;5240592;27;20063;-87
2024/04/22 01:58:25;;;;;;;3.83;1.80;;;;;;;3.54;100.00;101832.00;5219442;27;20018;-89
2024/04/22 02:00:53;;;;;;;5.05;2.08;;;;;;;3.45;100.00;101829.94;5213902;27;20011;-87
2024/04/22 02:03:18;;;;;;;1.90;1.80;;;;;;;3.38;100.00;101833.13;5242296;27;20014;-86
2024/04/22 02:05:47;;;;;;;2.42;2.22;;;;;;;3.38;100.00;101827.94;5216021;27;20355;-86
2024/04/22 02:08:12;;;;;;;3.92;1.55;;;;;;;3.31;100.00;101818.16;5215156;27;20467;-86
2024/04/22 02:10:40;;;;;;;3.67;1.70;;;;;;;3.20;100.00;101827.22;5210589;27;20011;-86
2024/04/22 02:13:08;;;;;;;2.58;1.77;;;;;;;3.16;98.73;101823.63;5217401;27;20079;-87
2024/04/22 02:15:37;;;;;;;2.47;1.85;;;;;;;2.89;99.67;101833.72;5185252;27;20441;-85
2024/04/22 02:18:02;;;;;;;2.47;1.65;;;;;;;2.89;99.90;101824.25;5179149;27;20019;-86
2024/04/22 02:20:31;;;;;;;3.75;1.75;;;;;;;3.02;99.43;101825.63;5207234;27;20007;-86
2024/04/22 02:22:56;;;;;;;1.63;1.52;;;;;;;2.95;100.00;101827.09;5148286;27;20060;-86
2024/04/22 02:25:24;;;;;;;4.45;2.38;;;;;;;2.90;100.00;101820.84;5187621;27;20023;-86
2024/04/22 02:27:52;;;;;;;2.42;2.10;;;;;;;2.83;98.12;101829.19;5180754;27;20023;-86
2024/04/22 02:30:20;;;;;;;2.25;1.52;;;;;;;2.83;99.03;101824.03;5182929;27;20019;-86
2024/04/22 02:32:48;;;;;;;3.47;1.73;;;;;;;2.66;99.84;101825.91;5177208;27;20015;-86
2024/04/22 02:35:17;;;;;;;1.98;1.60;;;;;;;2.70;100.00;101826.88;5175408;27;21067;-86
2024/04/22 02:37:43;;;;;;;3.30;1.80;;;;;;;2.61;99.02;101827.41;5184869;27;20031;-87
2024/04/22 02:40:11;;;;;;;17.45;2.70;;;;;;;2.69;98.37;101833.78;5161877;27;20473;-86
2024/04/22 02:42:37;;;;;;;4.68;1.98;;;;;;;2.52;96.32;101834.78;5182335;27;20463;-87
2024/04/22 02:45:05;;;;;;;5.88;2.55;;;;;;;2.54;96.13;101823.66;5184400;27;20020;-86
2024/04/22 02:47:31;;;;;;;3.22;1.92;;;;;;;2.59;96.01;101831.63;5212175;27;20011;-86
2024/04/22 02:49:59;;;;;;;1.83;1.48;;;;;;;2.57;94.42;101834.13;5205419;27;20015;-87
2024/04/22 02:52:25;;;;;;;2.55;2.08;;;;;;;2.61;93.88;101828.28;5150807;27;20008;-85
2024/04/22 02:54:53;;;;;;;3.58;1.70;;;;;;;2.61;93.88;101824.81;5204530;27;20069;-87
2024/04/22 02:57:19;;;;;;;5.18;1.73;;;;;;;2.60;92.96;101828.22;5179141;27;20019;-87
2024/04/22 02:59:47;;;;;;;1.25;1.15;;;;;;;2.51;93.35;101827.81;5189388;27;20008;-87
2024/04/22 03:02:13;;;;;;;4.15;1.50;;;;;;;2.57;92.89;101825.47;5209142;27;20055;-88
2024/04/22 03:04:41;;;;;;;6.22;2.13;;;;;;;2.45;93.06;101826.75;5174694;27;20020;-86
2024/04/22 03:07:07;;;;;;;6.13;2.42;;;;;;;2.50;92.25;101829.50;5175199;27;20048;-85
2024/04/22 03:09:40;;;;;;;2.15;1.58;;;;;;;2.55;92.51;101825.41;5209430;27;20003;-87
2024/04/22 03:12:06;;;;;;;3.33;1.57;;;;;;;2.58;89.56;101832.41;5201072;27;20027;-86
2024/04/22 03:14:34;;;;;;;1.63;1.35;;;;;;;2.50;88.78;101831.22;5187747;27;20242;-85
2024/04/22 03:17:00;;;;;;;1.88;1.40;;;;;;;2.47;87.96;101837.13;5203759;27;20043;-87
2024/04/22 03:19:28;;;;;;;4.00;1.75;;;;;;;2.38;87.68;101832.44;5187468;27;20166;-88
2024/04/22 03:21:54;;;;;;;3.88;1.55;;;;;;;2.33;87.27;101825.31;5246539;27;20022;-87
2024/04/22 03:24:22;;;;;;;1.42;1.33;;;;;;;2.26;86.53;101830.22;5214163;27;20047;-89
2024/04/22 03:26:48;;;;;;;2.70;1.70;;;;;;;2.30;87.36;101833.81;5213607;27;20011;-88
2024/04/22 03:29:16;;;;;;;3.67;2.35;;;;;;;2.29;86.42;101829.47;5212670;27;20014;-89
2024/04/22 03:31:43;;;;;;;2.83;1.20;;;;;;;2.15;86.02;101831.44;5243248;27;20031;-87
2024/04/22 03:34:11;;;;;;;1.60;1.23;;;;;;;2.15;86.31;101828.84;5211510;27;20099;-87
2024/04/22 03:36:37;;;;;;;2.55;1.45;;;;;;;2.11;84.75;101824.38;5241594;27;20760;-87
2024/04/22 03:39:06;;;;;;;3.03;1.75;;;;;;;2.18;85.21;101820.34;5212579;27;20022;-87
2024/04/22 03:41:34;;;;;;;3.33;1.50;;;;;;;2.19;83.50;101815.28;5241824;27;20026;-88
2024/04/22 03:44:02;;;;;;;1.70;1.50;;;;;;;2.06;82.75;101812.94;5207030;27;20036;-88
2024/04/22 03:51:59;;;;;;;;;;;;;;;2.12;82.10;101819.25;5240386;27;20066;-87
2024/04/22 03:54:27;;;;;;;4.97;2.05;;;;;;;2.08;82.11;101816.50;5215305;27;19963;-88
2024/04/22 03:56:55;;;;;;;2.65;1.80;;;;;;;2.08;81.67;101813.91;5238165;27;20093;-87
2024/04/22 03:59:21;;;;;;;2.45;1.75;;;;;;;1.98;81.00;101810.91;5185788;27;20007;-87
2024/04/22 04:01:49;;;;;;;4.15;1.80;;;;;;;1.95;81.56;101808.19;5184562;27;20025;-90
2024/04/22 04:04:15;;;;;;;4.75;1.95;;;;;;;1.90;81.40;101812.25;5215378;27;20023;-88
2024/04/22 04:06:44;;;;;;;5.80;1.80;;;;;;;1.87;81.02;101804.38;5190647;27;20021;-86
2024/04/22 04:09:12;;;;;;;2.75;1.33;;;;;;;1.77;80.87;101812.50;5216147;27;20026;-88
2024/04/22 04:11:41;;;;;;;3.38;1.75;;;;;;;1.77;81.31;101809.94;5218260;27;20750;-88
2024/04/22 04:14:07;;;;;;;2.47;2.00;;;;;;;1.79;81.42;101816.94;5215969;27;20019;-87
2024/04/22 04:16:36;;;;;;;5.60;2.17;;;;;;;1.83;81.09;101809.34;5204172;27;20015;-87
2024/04/22 04:19:02;;;;;;;3.90;1.77;;;;;;;1.82;81.10;101816.19;5206074;27;20004;-87
2024/04/22 04:21:30;;;;;;;3.20;2.10;;;;;;;1.78;80.86;101814.28;5234484;27;20087;-89
2024/04/22 04:23:56;;;;;;;2.75;1.88;;;;;;;1.73;80.74;101823.53;5180414;27;20681;-88
2024/04/22 04:26:24;;;;;;;4.72;2.10;;;;;;;1.82;81.43;101818.78;5156188;27;20019;-88
2024/04/22 04:28:50;;;;;;;4.20;1.73;;;;;;;1.84;80.35;101819.75;5181209;27;20050;-88
2024/04/22 04:31:20;;;;;;;2.83;1.70;;;;;;;1.89;80.68;101815.66;5208395;27;20428;-88
2024/04/22 04:33:46;;;;;;;1.60;1.42;;;;;;;1.86;80.37;101814.63;5178689;27;20008;-86
2024/04/22 04:36:14;;;;;;;2.05;1.73;;;;;;;1.89;80.28;101818.25;5208499;27;20023;-87
2024/04/22 04:38:42;;;;;;;9.60;2.70;;;;;;;1.85;80.07;101820.63;5183354;27;20004;-87
2024/04/22 04:41:08;;;;;;;4.18;3.03;;;;;;;1.83;80.36;101815.38;5181686;27;20027;-86
2024/04/22 04:43:36;;;;;;;3.55;1.95;;;;;;;1.81;80.67;101815.31;5234041;27;20057;-89
2024/04/22 04:46:02;;;;;;;3.08;1.77;;;;;;;1.83;80.17;101817.97;5181262;27;20022;-89
2024/04/22 04:48:31;;;;;;;2.10;1.10;;;;;;;1.86;80.41;101809.47;5209587;27;20012;-89
2024/04/22 04:50:56;;;;;;;3.63;1.63;;;;;;;1.89;79.86;101820.84;5179197;27;20355;-88
2024/04/22 04:53:25;;;;;;;3.20;1.55;;;;;;;1.96;79.74;101809.94;5173676;27;20008;-88
2024/04/22 04:55:50;;;;;;;3.13;1.60;;;;;;;1.99;79.25;101814.38;5161642;27;20030;-86
2024/04/22 04:58:19;;;;;;;5.35;1.95;;;;;;;2.04;79.11;101820.63;5207798;27;20008;-87
2024/04/22 05:00:48;;;;;;;1.45;1.35;;;;;;;2.05;78.94;101814.66;5178540;27;20371;-88
2024/04/22 05:03:16;;;;;;;5.80;1.80;;;;;;;2.07;77.75;101823.34;5181290;27;20014;-88
2024/04/22 05:05:42;;;;;;;1.45;1.30;;;;;;;2.14;77.47;101822.81;5191510;27;20011;-88
2024/04/22 05:08:11;;;;;;;1.60;1.50;;;;;;;2.10;77.11;101822.59;5163278;27;20012;-88
2024/04/22 05:10:37;;;;;;;3.53;1.45;;;;;;;2.19;77.18;101822.13;5238834;27;20022;-87
2024/04/22 05:13:06;;;;;;;2.17;2.03;;;;;;;2.27;76.90;101823.38;5206301;27;20023;-88
2024/04/22 05:15:31;;;;;;;3.35;3.05;;;;;;;2.27;76.96;101824.22;5230176;27;20015;-87
2024/04/22 05:18:00;;;;;;;1.67;1.25;;;;;;;2.34;76.33;101824.50;5153302;27;20271;-88
2024/04/22 05:20:29;;;;;;;3.95;2.28;;;;;;;2.35;76.20;101828.84;5181064;27;20009;-87
2024/04/22 05:23:01;;;;;;;2.90;1.60;;;;;;;2.35;76.07;101828.84;5213086;27;20007;-88
2024/04/22 05:25:27;;;;;;;3.67;1.50;;;;;;;2.50;75.21;101826.91;5193589;27;20031;-88
2024/04/22 05:27:56;;;;;;;3.47;1.58;;;;;;;2.56;75.60;101829.78;5160557;27;20019;-87
2024/04/22 05:30:22;;;;;;;2.15;1.38;;;;;;;2.67;74.57;101831.94;5182033;27;20019;-87
2024/04/22 05:32:50;;;;;;;1.85;1.75;;;;;;;2.68;74.09;101828.53;5153858;27;20103;-89
2024/04/22 05:38:09;;;;;;;4.15;2.53;;;;;;;2.61;74.02;101828.28;5185251;27;20574;-90
2024/04/22 05:40:37;;;;;;;1.38;1.20;;;;;;;2.64;72.88;101830.97;5166825;27;20745;-88
2024/04/22 05:43:06;;;;;;;1.15;1.00;;;;;;;2.70;73.09;101826.88;5179142;27;20027;-86
2024/04/22 05:45:35;;;;;;;3.22;1.30;;;;;;;2.71;72.28;101829.56;5182174;27;20080;-87
2024/04/22 05:48:03;;;;;;;2.92;1.58;;;;;;;2.82;72.52;101832.59;5187144;27;20015;-86
2024/04/22 05:50:34;;;;;;;1.80;1.70;;;;;;;2.96;72.45;101831.47;5187169;27;20015;-86
2024/04/22 05:53:03;;;;;;;2.55;1.38;;;;;;;3.00;70.96;101821.22;5185583;27;20012;-90
2024/04/22 05:55:34;;;;;;;2.92;1.52;;;;;;;3.12;71.27;101830.38;5187401;27;20048;-90
2024/04/22 05:57:59;;;;;;;3.78;1.33;;;;;;;3.02;69.50;101825.63;5204551;27;20022;-91
2024/04/22 06:00:28;;;;;;;4.97;1.80;;;;;;;3.08;69.81;101823.31;5208566;27;20011;-87
2024/04/22 06:02:53;;;;;;;2.75;1.50;;;;;;;3.14;68.45;101818.41;5206514;27;20035;-88
2024/04/22 06:05:21;;;;;;;3.10;1.90;;;;;;;3.08;68.68;101823.31;5176465;27;20012;-84
2024/04/22 06:07:50;;;;;;;2.05;1.50;;;;;;;3.12;69.04;101824.31;5207955;27;20012;-87
2024/04/22 06:10:18;;;;;;;1.67;1.58;;;;;;;3.11;68.92;101822.56;5177258;27;20049;-88
2024/04/22 06:12:44;;;;;;;1.88;1.42;;;;;;;3.18;68.62;101822.00;5189825;27;20059;-85
2024/04/22 06:15:15;;;;;;;1.35;1.25;;;;;;;3.27;68.71;101824.94;5143923;27;1059839;-89
2024/04/22 06:17:40;;;;;;;3.15;1.30;;;;;;;3.47;68.32;101820.53;5234598;27;20011;-87
2024/04/22 06:20:14;;;;;;;2.08;1.27;;;;;;;3.48;67.03;101826.59;5216476;27;20021;-87
2024/04/22 06:22:42;;;;;;;;;;;;;;;3.41;66.24;101822.88;5222548;27;20018;-90
2024/04/22 06:25:08;;;;;;;6.80;1.80;;;;;;;3.50;66.90;101829.25;5177626;27;20631;-84
2024/04/22 06:27:36;;;;;;;4.05;2.17;;;;;;;3.51;65.37;101829.31;5213131;27;20026;-86
2024/04/22 06:30:03;;;;;;;2.63;1.73;;;;;;;3.67;65.55;101830.78;5223671;27;20011;-87
2024/04/22 06:32:34;;;;;;;7.38;1.75;;;;;;;3.86;65.98;101828.88;5218267;27;20086;-88
2024/04/22 06:35:05;;;;;;;3.13;1.67;;;;;;;4.08;64.81;101825.38;5242471;27;20129;-89
2024/04/22 06:37:36;;;;;;;1.55;1.15;;;;;;;4.02;63.30;101822.59;5217946;27;20007;-87
2024/04/22 06:40:04;;;;;;;3.33;1.55;;;;;;;4.20;64.37;101823.25;5264699;27;20015;-88
2024/04/22 06:42:32;;;;;;;42.50;4.15;;;;;;;4.39;63.82;101826.50;5245776;27;20022;-87
2024/04/22 06:44:58;;;;;;;3.22;1.50;;;;;;;4.37;62.89;101815.16;5217617;27;20449;-87
2024/04/22 06:47:28;;;;;;;2.60;1.45;;;;;;;4.47;62.09;101822.44;5225866;27;20011;-89
2024/04/22 06:49:54;;;;;;;8.13;1.60;;;;;;;4.61;61.90;101826.41;5219540;27;19999;-90
2024/04/22 06:52:22;;;;;;;1.45;1.40;;;;;;;4.47;61.91;101825.03;5249471;27;20003;-89
2024/04/22 06:54:48;;;;;;;3.15;1.30;;;;;;;4.74;62.03;101821.66;5220254;27;20011;-87
2024/04/22 06:57:17;;;;;;;1.60;1.00;;;;;;;4.98;61.83;101824.19;5214357;27;20054;-88
2024/04/22 06:59:46;;;;;;;3.25;1.20;;;;;;;4.81;59.98;101818.44;5218759;27;20031;-88
2024/04/22 07:02:14;;;;;;;3.20;1.20;;;;;;;4.78;60.35;101813.13;5222743;27;20007;-88
2024/04/22 07:04:40;;;;;;;1.65;1.23;;;;;;;5.48;58.97;101813.63;5201531;27;20011;-88
2024/04/22 07:07:08;;;;;;;1.10;0.82;;;;;;;6.00;56.92;101811.72;5193247;27;20029;-89
2024/04/22 07:09:34;;;;;;;1.65;1.35;;;;;;;6.67;55.34;101808.31;5221488;27;20021;-89
2024/04/22 07:12:02;;;;;;;1.75;1.05;;;;;;;6.73;54.60;101811.09;5243298;27;20011;-88
2024/04/22 07:14:30;;;;;;;0.88;0.88;;;;;;;6.59;53.60;101809.00;5195939;27;20014;-88
2024/04/22 07:16:59;;;;;;;2.47;1.48;;;;;;;7.19;52.09;101806.13;5195879;27;20117;-86
2024/04/22 07:19:24;;;;;;;2.10;1.95;;;;;;;8.20;50.12;101809.13;5190194;27;20011;-86
2024/04/22 07:21:52;;;;;;;3.25;0.95;;;;;;;8.25;48.49;101808.38;5211545;27;20015;-87
2024/04/22 07:24:18;;;;;;;1.42;1.02;;;;;;;8.44;49.65;101813.94;5182449;27;20024;-89
2024/04/22 07:26:46;;;;;;;6.85;1.77;;;;;;;9.17;48.00;101802.16;5210128;27;20350;-89
2024/04/22 07:29:13;;;;;;;3.17;1.00;;;;;;;9.80;47.39;101807.38;5215252;27;20016;-87
2024/04/22 07:31:44;;;;;;;4.03;1.70;;;;;;;9.67;46.85;101801.09;5163630;27;20868;-85
2024/04/22 07:34:11;;;;;;;2.05;0.93;;;;;;;9.79;44.34;101800.38;5190084;27;20016;-87
2024/04/22 07:36:46;;;;;;;2.13;0.70;;;;;;;9.79;45.08;101792.53;5163423;27;20017;-88
2024/04/22 07:39:14;;;;;;;0.95;0.70;;;;;;;10.46;43.33;101797.69;5209068;27;20016;-89
2024/04/22 07:41:43;;;;;;;2.20;0.50;;;;;;;10.68;42.81;101796.16;5186456;27;20008;-87
2024/04/22 07:44:09;;;;;;;0.50;0.40;;;;;;;10.50;42.46;101796.00;5183860;27;20019;-89
2024/04/22 07:46:39;;;;;;;1.45;0.93;;;;;;;10.71;42.55;101803.16;5186000;27;20019;-88
2024/04/22 07:49:05;;;;;;;0.98;0.80;;;;;;;11.72;39.73;101795.13;5188172;27;20103;-89
2024/04/22 07:51:33;;;;;;;0.82;0.80;;;;;;;12.05;39.44;101796.16;5219258;27;20016;-91
2024/04/22 07:53:59;;;;;;;4.70;1.15;;;;;;;13.15;38.02;101787.50;5185409;27;20026;-88
2024/04/22 07:56:28;;;;;;;2.70;0.93;;;;;;;13.52;36.93;101788.31;5213276;27;20457;-88
2024/04/22 07:58:56;;;;;;;0.93;0.70;;;;;;;10.88;40.87;101788.47;5240616;27;20029;-87
2024/04/22 08:01:24;;;;;;;1.13;1.02;;;;;;;11.50;40.49;101785.38;5185307;27;20503;-89
2024/04/22 08:03:51;;;;;;;0.70;0.70;;;;;;;12.35;40.09;101789.22;5185134;27;20459;-91
2024/04/22 08:06:22;;;;;;;5.65;1.65;;;;;;;12.66;37.57;101786.63;5194107;27;20008;-88
2024/04/22 08:08:48;;;;;;;1.05;0.95;;;;;;;14.04;37.26;101775.81;5208654;27;20004;-92
2024/04/22 08:11:16;;;;;;;1.80;0.90;;;;;;;14.94;35.10;101778.72;5173785;27;20023;-89
2024/04/22 08:13:42;;;;;;;3.13;0.82;;;;;;;15.37;33.13;101777.44;5187049;27;20020;-88
2024/04/22 08:16:13;;;;;;;1.13;0.90;;;;;;;15.37;33.50;101775.66;5192970;27;20012;-89
2024/04/22 08:18:39;;;;;;;1.67;1.02;;;;;;;16.12;32.55;101778.28;5190234;27;20008;-90
2024/04/22 08:21:08;;;;;;;0.85;0.60;;;;;;;15.58;33.07;101773.66;5191813;27;20019;-88
2024/04/22 08:23:36;;;;;;;3.25;1.00;;;;;;;16.13;32.02;101773.88;5197026;27;20012;-90
2024/04/22 08:26:07;;;;;;;3.63;1.17;;;;;;;15.27;32.56;101771.38;5187645;27;20404;-90
2024/04/22 08:28:33;;;;;;;5.13;1.23;;;;;;;15.92;32.97;101768.00;5170042;27;20035;-90
2024/04/22 08:31:07;;;;;;;2.83;1.15;;;;;;;16.77;31.41;101774.63;5162505;27;20012;-88
2024/04/22 08:33:33;;;;;;;1.80;0.82;;;;;;;17.00;31.19;101773.38;5219105;27;20013;-89
2024/04/22 08:36:02;;;;;;;2.53;1.38;;;;;;;16.04;31.47;101775.72;5204266;27;20008;-87
2024/04/22 08:38:28;;;;;;;2.42;1.05;;;;;;;15.15;32.03;101775.00;5180442;27;20011;-89
2024/04/22 08:40:59;;;;;;;1.13;0.68;;;;;;;15.83;32.43;101768.13;5182380;27;20004;-87
2024/04/22 08:43:25;;;;;;;1.83;1.17;;;;;;;15.57;32.42;101778.97;5192702;27;20007;-89
2024/04/22 08:45:56;;;;;;;1.23;0.60;;;;;;;14.18;31.30;101776.63;5209712;27;20044;-89
2024/04/22 08:48:22;;;;;;;1.45;0.63;;;;;;;15.64;31.41;101773.56;5193242;27;20019;-87
2024/04/22 08:50:56;;;;;;;0.98;0.80;;;;;;;15.12;30.99;101769.78;5227299;27;20008;-90
2024/04/22 08:53:22;;;;;;;2.47;0.90;;;;;;;14.22;29.47;101775.72;5191666;27;20014;-89
2024/04/22 08:55:51;;;;;;;0.60;0.55;;;;;;;15.23;29.28;101767.03;5214258;27;20019;-88
2024/04/22 08:58:17;;;;;;;1.95;0.77;;;;;;;15.13;28.77;101774.13;5191467;27;20004;-90
2024/04/22 09:00:46;;;;;;;1.77;0.88;;;;;;;14.63;30.19;101776.31;5187913;27;20014;-88
2024/04/22 09:03:15;;;;;;;3.20;0.75;;;;;;;15.57;28.89;101764.00;5165768;27;20052;-89
2024/04/22 09:05:43;;;;;;;1.58;0.68;;;;;;;15.85;28.55;101768.97;5217863;27;20081;-86
2024/04/22 09:08:09;;;;;;;1.17;1.00;;;;;;;16.49;28.91;101761.00;5199325;27;20022;-88
2024/04/22 09:10:40;;;;;;;1.25;0.77;;;;;;;16.05;28.60;101763.41;5185942;27;20022;-87
2024/04/22 09:13:05;;;;;;;1.50;0.52;;;;;;;15.67;28.35;101763.00;5187819;27;20003;-89
2024/04/22 09:15:37;;;;;;;1.13;0.63;;;;;;;15.77;28.27;101774.28;5170241;27;20008;-86
2024/04/22 09:18:03;;;;;;;2.10;0.80;;;;;;;14.96;28.77;101771.66;5178969;27;20031;-87
2024/04/22 09:20:34;;;;;;;1.95;0.90;;;;;;;13.93;29.24;101767.13;5203900;27;20012;-88
2024/04/22 09:23:00;;;;;;;1.38;0.98;;;;;;;14.98;28.55;101771.66;5204486;27;20004;-85
2024/04/22 09:25:28;;;;;;;0.85;0.55;;;;;;;15.71;28.62;101763.84;5209556;27;20040;-88
2024/04/22 09:27:54;;;;;;;2.25;1.20;;;;;;;16.78;27.66;101752.59;5233183;27;20012;-86
2024/04/22 09:30:23;;;;;;;0.82;0.75;;;;;;;15.67;28.98;101759.47;5178926;27;20597;-89
2024/04/22 09:32:57;;;;;;;2.00;1.08;;;;;;;15.46;28.55;101763.25;5213130;27;20004;-89
2024/04/22 09:35:24;;;;;;;3.67;1.33;;;;;;;15.50;28.67;101754.41;5239012;27;20042;-90
2024/04/22 09:37:54;;;;;;;1.67;0.88;;;;;;;14.34;28.79;101758.97;5209076;27;20065;-89
2024/04/22 09:40:20;;;;;;;2.10;0.80;;;;;;;13.69;29.64;101761.09;5212147;27;20012;-90
2024/04/22 09:42:50;;;;;;;2.30;0.88;;;;;;;14.85;28.63;101758.59;5153104;27;20007;-87
2024/04/22 09:45:15;;;;;;;1.33;0.80;;;;;;;14.66;28.66;101752.59;5211109;27;20059;-90
2024/04/22 09:47:45;;;;;;;2.17;1.42;;;;;;;15.81;27.36;101754.94;5209221;27;20015;-90
2024/04/22 09:50:12;;;;;;;0.93;0.93;;;;;;;14.42;27.92;101750.13;5204871;27;20014;-89
2024/04/22 09:52:42;;;;;;;2.60;1.17;;;;;;;15.34;27.61;101756.34;5212421;27;20012;-89
2024/04/22 09:55:09;;;;;;;1.45;0.90;;;;;;;13.92;28.46;101755.69;5180812;27;20030;-90
2024/04/22 09:57:43;;;;;;;3.55;0.80;;;;;;;14.89;28.42;101739.22;5208401;27;20048;-90
2024/04/22 10:00:11;;;;;;;0.75;0.75;;;;;;;15.58;28.25;101742.00;5213931;27;20019;-87
2024/04/22 10:02:39;;;;;;;2.45;1.20;;;;;;;14.80;29.05;101741.09;5186136;27;20007;-88
2024/04/22 10:05:13;;;;;;;2.33;0.70;;;;;;;15.07;29.14;101752.22;5208314;27;20026;-86
2024/04/22 10:07:42;;;;;;;0.90;0.90;;;;;;;15.07;29.35;101745.22;5205411;27;19999;-88
2024/04/22 10:10:09;;;;;;;1.75;0.95;;;;;;;16.66;27.54;101737.81;5210273;27;20019;-88
2024/04/22 10:12:38;;;;;;;4.32;2.13;;;;;;;17.09;27.89;101740.59;5212119;27;20039;-89
2024/04/22 10:15:11;;;;;;;2.13;1.40;;;;;;;18.59;26.07;101730.31;5183435;27;20011;-86
2024/04/22 10:17:45;;;;;;;0.80;0.80;;;;;;;16.48;28.09;101733.69;5215715;27;20028;-86
2024/04/22 10:20:11;;;;;;;1.88;1.52;;;;;;;16.45;27.83;101731.13;5185348;27;20095;-88
2024/04/22 10:22:43;;;;;;;1.13;0.80;;;;;;;17.03;27.53;101734.53;5188275;27;20019;-87
2024/04/22 10:25:11;;;;;;;1.25;0.80;;;;;;;16.38;28.24;101732.09;5188649;27;20012;-87
2024/04/22 10:27:40;;;;;;;1.70;1.00;;;;;;;18.15;26.60;101716.34;5186701;27;20027;-90
2024/04/22 10:30:07;;;;;;;1.05;0.95;;;;;;;18.85;25.27;101721.66;5190390;27;20022;-88
2024/04/22 10:32:35;;;;;;;1.52;1.33;;;;;;;16.97;26.61;101717.91;5192121;27;20012;-91
2024/04/22 10:35:00;;;;;;;2.45;0.85;;;;;;;16.20;27.78;101712.13;5178736;27;20023;-88
2024/04/22 10:37:29;;;;;;;1.85;1.58;;;;;;;14.60;29.68;101715.75;5190645;27;20012;-87
2024/04/22 10:39:54;;;;;;;1.27;1.00;;;;;;;14.16;30.82;101714.31;5154766;27;20023;-89
2024/04/22 10:42:28;;;;;;;1.55;0.95;;;;;;;14.11;29.39;101713.50;5188741;27;20750;-88
2024/04/22 10:44:54;;;;;;;1.05;0.98;;;;;;;13.18;31.16;101720.00;5189897;27;20013;-88
2024/04/22 10:47:22;;;;;;;1.38;1.15;;;;;;;13.09;31.35;101717.41;5188266;27;20038;-89
2024/04/22 10:49:48;;;;;;;8.38;1.38;;;;;;;13.25;31.41;101715.59;5188694;27;20048;-88
2024/04/22 10:52:16;;;;;;;1.10;0.95;;;;;;;12.41;32.65;101720.06;5154728;27;20008;-89
2024/04/22 10:54:42;;;;;;;1.65;1.52;;;;;;;12.78;31.91;101712.19;5188796;27;20729;-87
2024/04/22 10:57:10;;;;;;;1.60;1.13;;;;;;;11.87;33.05;101718.19;5162639;27;20023;-89
2024/04/22 10:59:36;;;;;;;1.17;1.02;;;;;;;12.18;32.99;101709.56;5183215;27;20011;-91
2024/04/22 11:02:05;;;;;;;3.33;1.30;;;;;;;12.66;32.56;101707.84;5193259;27;20040;-88
2024/04/22 11:04:33;;;;;;;1.48;1.00;;;;;;;12.08;33.27;101708.66;5191764;27;20011;-87
2024/04/22 11:07:03;;;;;;;2.75;1.08;;;;;;;11.69;33.51;101700.69;5191156;27;20012;-86
2024/04/22 11:09:28;;;;;;;1.25;1.15;;;;;;;11.73;33.71;101698.94;5188128;27;20027;-89
2024/04/22 11:11:57;;;;;;;3.00;1.20;;;;;;;11.46;34.55;101700.59;5202693;27;20093;-87
2024/04/22 11:14:24;;;;;;;3.95;1.30;;;;;;;11.34;34.31;101701.41;5215307;27;20040;-88
2024/04/22 11:16:59;;;;;;;6.07;1.27;;;;;;;11.55;34.90;101689.25;5195628;27;20011;-89
2024/04/22 11:19:26;;;;;;;22.20;2.22;;;;;;;10.86;35.28;101693.28;5165603;27;20047;-88
2024/04/22 11:21:54;;;;;;;3.60;1.15;;;;;;;10.89;35.63;101695.03;5159910;27;20349;-91
2024/04/22 11:24:21;;;;;;;1.33;0.88;;;;;;;9.97;36.34;101692.50;5185645;27;20036;-90
2024/04/22 11:26:49;;;;;;;6.78;1.77;;;;;;;9.66;37.36;101690.44;5217015;27;20008;-90
2024/04/22 11:29:15;;;;;;;2.15;1.25;;;;;;;10.18;36.83;101691.81;5189738;27;20355;-89
2024/04/22 11:31:44;;;;;;;1.95;1.00;;;;;;;11.41;35.18;101682.22;5197836;27;20012;-87
2024/04/22 11:34:10;;;;;;;2.28;1.27;;;;;;;13.45;32.57;101683.13;5182183;27;20024;-89
2024/04/22 11:36:40;;;;;;;3.05;1.73;;;;;;;14.95;30.65;101672.34;5159812;27;20012;-90
2024/04/22 11:39:15;;;;;;;2.83;1.50;;;;;;;16.04;28.65;101671.88;5214369;27;20077;-90